createdAt,value
2018-12-14T00:01:42.858Z,92.70
2018-12-14T00:04:12.752Z,92.70
2018-12-14T00:06:42.592Z,92.70
2018-12-14T00:09:10.744Z,92.90
2018-12-14T00:11:45.422Z,92.70
2018-12-14T00:14:09.664Z,92.70
2018-12-14T00:16:37.686Z,92.80
2018-12-14T00:19:05.769Z,92.80
2018-12-14T00:21:33.736Z,92.70
2018-12-14T00:24:01.664Z,92.80
2018-12-14T00:26:29.735Z,93.00
2018-12-14T00:28:57.762Z,93.10
2018-12-14T00:31:25.680Z,93.10
2018-12-14T00:33:54.180Z,93.00
2018-12-14T00:36:22.061Z,93.00
2018-12-14T00:38:50.188Z,93.00
2018-12-14T00:41:22.431Z,93.00
2018-12-14T00:43:50.462Z,93.00
2018-12-14T00:46:18.458Z,93.00
2018-12-14T00:48:46.760Z,93.00
2018-12-14T00:51:15.276Z,93.00
2018-12-14T00:53:43.188Z,93.00
2018-12-14T00:56:11.065Z,93.00
2018-12-14T00:58:38.860Z,93.00
2018-12-14T01:01:06.834Z,93.00
2018-12-14T01:03:35.036Z,93.00
2018-12-14T01:06:03.126Z,93.00
2018-12-14T01:08:31.086Z,93.00
2018-12-14T01:10:59.112Z,93.00
2018-12-14T01:13:27.023Z,93.00
2018-12-14T01:15:54.978Z,93.10
2018-12-14T01:18:22.857Z,93.10
2018-12-14T01:20:50.794Z,93.10
2018-12-14T01:23:18.813Z,93.10
2018-12-14T01:25:46.733Z,93.10
2018-12-14T01:28:14.999Z,93.20
2018-12-14T01:30:43.542Z,93.10
2018-12-14T01:33:11.428Z,93.20
2018-12-14T01:35:39.340Z,93.20
2018-12-14T01:38:07.859Z,93.20
2018-12-14T01:40:35.936Z,93.20
2018-12-14T01:43:04.096Z,93.10
2018-12-14T01:45:31.994Z,93.20
2018-12-14T01:47:59.848Z,93.20
2018-12-14T01:50:27.816Z,93.10
2018-12-14T01:53:02.599Z,93.10
2018-12-14T01:55:30.501Z,93.00
2018-12-14T01:57:58.684Z,93.00
2018-12-14T02:00:26.688Z,93.00
2018-12-14T02:02:54.634Z,92.90
2018-12-14T02:05:22.670Z,93.10
2018-12-14T02:07:50.545Z,92.90
2018-12-14T02:10:18.569Z,93.00
2018-12-14T02:12:46.526Z,92.90
2018-12-14T02:15:14.620Z,92.80
2018-12-14T02:17:42.563Z,92.90
2018-12-14T02:20:14.808Z,93.00
2018-12-14T02:22:44.023Z,92.90
2018-12-14T02:25:11.924Z,92.80
2018-12-14T02:27:43.951Z,92.90
2018-12-14T02:30:49.211Z,92.70
2018-12-14T02:33:17.060Z,92.70
2018-12-14T02:35:45.105Z,92.60
2018-12-14T02:38:13.484Z,92.50
2018-12-14T02:40:41.348Z,92.20
2018-12-14T02:43:09.184Z,92.10
2018-12-14T02:45:37.087Z,92.20
2018-12-14T02:48:04.969Z,92.30
2018-12-14T02:50:32.920Z,92.40
2018-12-14T02:53:00.769Z,92.40
2018-12-14T02:55:28.740Z,92.40
2018-12-14T02:57:56.696Z,92.40
2018-12-14T03:00:26.556Z,92.40
2018-12-14T03:03:00.543Z,92.70
2018-12-14T03:08:03.022Z,92.50
2018-12-14T03:10:32.137Z,92.50
2018-12-14T03:13:00.020Z,92.50
2018-12-14T03:15:27.865Z,92.50
2018-12-14T03:17:55.686Z,92.40
2018-12-14T03:20:24.825Z,92.40
2018-12-14T03:22:52.671Z,92.50
2018-12-14T03:25:20.563Z,92.40
2018-12-14T03:27:48.713Z,92.60
2018-12-14T03:30:16.567Z,92.40
2018-12-14T03:32:44.800Z,92.80
2018-12-14T03:35:13.048Z,92.70
2018-12-14T03:37:41.001Z,92.40
2018-12-14T03:40:08.997Z,92.20
2018-12-14T03:42:37.206Z,92.30
2018-12-14T03:45:05.536Z,92.30
2018-12-14T03:47:33.370Z,92.30
2018-12-14T03:50:01.290Z,92.50
2018-12-14T03:52:29.242Z,92.70
2018-12-14T03:54:57.093Z,92.50
2018-12-14T03:57:25.072Z,92.40
2018-12-14T03:59:52.886Z,92.40
2018-12-14T04:02:21.210Z,92.50
2018-12-14T04:04:49.204Z,92.40
2018-12-14T04:07:17.157Z,92.40
2018-12-14T04:09:45.117Z,92.90
2018-12-14T04:12:13.258Z,92.90
2018-12-14T04:14:41.230Z,93.10
2018-12-14T04:17:09.127Z,93.30
2018-12-14T04:19:37.016Z,92.90
2018-12-14T04:22:05.434Z,92.70
2018-12-14T04:24:33.272Z,92.60
2018-12-14T04:27:01.165Z,92.50
2018-12-14T04:29:29.077Z,92.30
2018-12-14T04:31:56.927Z,92.20
2018-12-14T04:34:24.922Z,92.20
2018-12-14T04:36:53.095Z,92.20
2018-12-14T04:39:22.906Z,92.10
2018-12-14T04:41:51.401Z,92.30
2018-12-14T04:44:19.259Z,92.50
2018-12-14T04:46:47.328Z,92.80
2018-12-14T04:49:15.238Z,92.90
2018-12-14T04:51:43.044Z,92.60
2018-12-14T04:54:10.849Z,92.50
2018-12-14T04:56:38.829Z,92.90
2018-12-14T04:59:06.668Z,92.50
2018-12-14T05:01:34.525Z,92.90
2018-12-14T05:04:02.440Z,92.60
2018-12-14T05:06:31.638Z,92.60
2018-12-14T05:08:59.733Z,92.80
2018-12-14T05:11:27.578Z,92.50
2018-12-14T05:13:55.451Z,92.50
2018-12-14T05:16:23.243Z,92.40
2018-12-14T05:18:51.028Z,92.60
2018-12-14T05:21:18.824Z,93.40
2018-12-14T05:23:46.929Z,93.00
2018-12-14T05:26:17.208Z,93.30
2018-12-14T05:28:45.295Z,93.10
2018-12-14T05:31:13.193Z,93.30
2018-12-14T05:33:41.057Z,93.40
2018-12-14T05:36:09.852Z,92.90
2018-12-14T05:38:37.682Z,92.90
2018-12-14T05:41:05.521Z,92.80
2018-12-14T05:43:33.421Z,92.80
2018-12-14T05:46:01.263Z,92.90
2018-12-14T05:48:29.157Z,93.60
2018-12-14T05:53:31.490Z,93.00
2018-12-14T05:55:59.334Z,92.70
2018-12-14T05:58:27.465Z,92.50
2018-12-14T06:00:55.348Z,92.80
2018-12-14T06:03:23.292Z,93.40
2018-12-14T06:05:51.125Z,93.10
2018-12-14T06:08:19.020Z,92.90
2018-12-14T06:10:46.904Z,93.20
2018-12-14T06:13:14.709Z,92.90
2018-12-14T06:15:45.324Z,93.00
2018-12-14T06:18:13.303Z,92.90
2018-12-14T06:20:41.081Z,92.70
2018-12-14T06:23:08.917Z,92.80
2018-12-14T06:25:37.218Z,92.60
2018-12-14T06:28:05.029Z,92.40
2018-12-14T06:30:32.923Z,92.70
2018-12-14T06:33:00.847Z,92.50
2018-12-14T06:35:28.702Z,92.60
2018-12-14T06:37:56.643Z,92.00
2018-12-14T06:40:24.491Z,92.10
2018-12-14T06:42:52.768Z,92.00
2018-12-14T06:45:20.724Z,92.40
2018-12-14T06:47:48.532Z,92.30
2018-12-14T06:50:16.540Z,92.10
2018-12-14T06:52:44.469Z,92.20
2018-12-14T06:55:12.370Z,92.00
2018-12-14T06:57:43.948Z,92.00
2018-12-14T07:00:11.918Z,91.90
2018-12-14T07:02:39.823Z,91.80
2018-12-14T07:05:07.745Z,91.80
2018-12-14T07:07:35.565Z,91.60
2018-12-14T07:10:03.840Z,91.60
2018-12-14T07:12:31.784Z,92.10
2018-12-14T07:14:59.617Z,91.90
2018-12-14T07:17:27.485Z,91.80
2018-12-14T07:19:55.317Z,91.90
2018-12-14T07:22:23.123Z,91.80
2018-12-14T07:24:50.905Z,91.60
2018-12-14T07:27:18.851Z,91.60
2018-12-14T07:29:46.710Z,91.60
2018-12-14T07:32:14.695Z,91.70
2018-12-14T07:34:42.501Z,91.70
2018-12-14T07:37:10.403Z,91.60
2018-12-14T07:39:38.399Z,91.80
2018-12-14T07:42:06.250Z,91.70
2018-12-14T07:44:34.184Z,91.50
2018-12-14T07:47:02.074Z,91.70
2018-12-14T07:49:30.206Z,93.10
2018-12-14T07:51:58.157Z,93.40
2018-12-14T07:54:26.055Z,94.00
2018-12-14T07:56:53.917Z,92.90
2018-12-14T07:59:21.849Z,93.10
2018-12-14T08:01:49.771Z,92.50
2018-12-14T08:04:17.734Z,92.50
2018-12-14T08:06:45.647Z,92.30
2018-12-14T08:09:14.047Z,92.00
2018-12-14T08:11:42.173Z,92.80
2018-12-14T08:14:09.957Z,92.20
2018-12-14T08:16:40.362Z,92.00
2018-12-14T08:21:43.129Z,91.40
2018-12-14T08:24:10.908Z,91.50
2018-12-14T08:26:38.717Z,91.70
2018-12-14T08:29:06.834Z,92.00
2018-12-14T08:31:34.652Z,91.70
2018-12-14T08:34:02.618Z,91.60
2018-12-14T08:36:30.549Z,91.50
2018-12-14T08:38:58.329Z,91.70
2018-12-14T08:41:27.528Z,91.40
2018-12-14T08:43:55.906Z,91.40
2018-12-14T08:46:23.948Z,91.40
2018-12-14T08:48:52.117Z,91.50
2018-12-14T08:51:23.041Z,91.30
2018-12-14T08:53:51.467Z,91.30
2018-12-14T08:56:19.261Z,91.20
2018-12-14T08:58:47.041Z,91.10
2018-12-14T09:01:14.956Z,91.00
2018-12-14T09:03:45.927Z,91.00
2018-12-14T09:06:14.162Z,91.10
2018-12-14T09:08:41.952Z,91.30
2018-12-14T09:11:09.849Z,91.40
2018-12-14T09:13:37.846Z,91.30
2018-12-14T09:16:05.837Z,91.10
2018-12-14T09:18:33.704Z,91.50
2018-12-14T09:21:01.575Z,91.60
2018-12-14T09:23:29.360Z,92.00
2018-12-14T09:25:57.281Z,92.00
2018-12-14T09:28:25.347Z,91.70
2018-12-14T09:30:53.377Z,91.20
2018-12-14T09:33:21.270Z,91.30
2018-12-14T09:35:49.094Z,91.10
2018-12-14T09:38:17.099Z,91.00
2018-12-14T09:40:45.060Z,91.00
2018-12-14T09:43:12.972Z,91.00
2018-12-14T09:45:40.901Z,90.90
2018-12-14T09:48:08.698Z,90.90
2018-12-14T09:50:36.725Z,91.10
2018-12-14T09:53:04.636Z,91.10
2018-12-14T09:55:32.504Z,91.00
2018-12-14T09:58:00.360Z,91.00
2018-12-14T10:00:28.157Z,90.70
2018-12-14T10:02:59.660Z,90.90
2018-12-14T10:05:27.969Z,91.50
2018-12-14T10:07:55.810Z,91.40
2018-12-14T10:10:24.062Z,91.10
2018-12-14T10:12:51.866Z,91.20
2018-12-14T10:15:19.658Z,91.30
2018-12-14T10:17:47.488Z,91.00
2018-12-14T10:20:15.436Z,90.60
2018-12-14T10:22:43.499Z,90.50
2018-12-14T10:25:11.797Z,90.00
2018-12-14T10:27:39.948Z,90.00
2018-12-14T10:30:08.484Z,89.80
2018-12-14T10:32:36.496Z,90.30
2018-12-14T10:35:06.149Z,90.00
2018-12-14T10:37:34.162Z,89.30
2018-12-14T10:40:02.210Z,88.50
2018-12-14T10:42:31.567Z,88.10
2018-12-14T10:44:59.475Z,89.60
2018-12-14T10:47:27.424Z,89.60
2018-12-14T10:49:55.409Z,89.10
2018-12-14T10:52:24.216Z,88.70
2018-12-14T10:54:52.482Z,87.90
2018-12-14T10:57:20.671Z,87.50
2018-12-14T10:59:48.603Z,87.40
2018-12-14T11:02:16.549Z,87.60
2018-12-14T11:04:44.484Z,87.00
2018-12-14T11:07:12.277Z,86.40
2018-12-14T11:09:40.217Z,86.30
2018-12-14T11:12:08.327Z,86.10
2018-12-14T11:14:36.177Z,85.40
2018-12-14T11:17:04.358Z,85.30
2018-12-14T11:19:32.159Z,85.50
2018-12-14T11:22:00.292Z,85.20
2018-12-14T11:24:31.952Z,85.50
2018-12-14T11:26:59.825Z,85.50
2018-12-14T11:29:27.600Z,85.80
2018-12-14T11:31:55.454Z,84.60
2018-12-14T11:34:29.534Z,84.10
2018-12-14T11:36:53.208Z,85.30
2018-12-14T11:39:21.234Z,85.30
2018-12-14T11:41:49.262Z,85.30
2018-12-14T11:44:20.702Z,84.60
2018-12-14T11:46:47.038Z,83.40
2018-12-14T11:49:14.920Z,82.50
2018-12-14T11:51:42.743Z,82.20
2018-12-14T11:54:10.493Z,81.80
2018-12-14T11:56:38.295Z,81.30
2018-12-14T11:59:07.282Z,81.50
2018-12-14T12:01:35.105Z,82.30
2018-12-14T12:04:03.031Z,80.70
2018-12-14T12:06:30.941Z,80.20
2018-12-14T12:08:58.989Z,79.70
2018-12-14T12:11:27.610Z,79.90
2018-12-14T12:13:56.623Z,79.80
2018-12-14T12:16:24.400Z,80.40
2018-12-14T12:18:52.185Z,80.80
2018-12-14T12:21:20.121Z,80.50
2018-12-14T12:23:48.115Z,79.90
2018-12-14T12:26:15.938Z,80.50
2018-12-14T12:28:43.881Z,80.00
2018-12-14T12:31:13.063Z,80.80
2018-12-14T12:33:40.854Z,80.60
2018-12-14T12:36:08.662Z,80.20
2018-12-14T12:38:38.192Z,80.00
2018-12-14T12:41:06.496Z,80.40
2018-12-14T12:43:34.396Z,80.60
2018-12-14T12:46:02.397Z,80.80
2018-12-14T12:48:30.324Z,81.40
2018-12-14T12:51:03.049Z,81.90
2018-12-14T12:53:29.598Z,82.50
2018-12-14T12:55:57.457Z,82.60
2018-12-14T12:58:25.289Z,82.50
2018-12-14T13:00:53.241Z,82.60
2018-12-14T13:03:21.089Z,83.20
2018-12-14T13:05:49.053Z,84.40
2018-12-14T13:08:16.858Z,84.00
2018-12-14T13:10:45.100Z,83.90
2018-12-14T13:13:12.864Z,84.10
2018-12-14T13:15:40.805Z,84.20
2018-12-14T13:18:08.859Z,84.30
2018-12-14T13:20:36.708Z,84.30
2018-12-14T13:23:04.530Z,84.50
2018-12-14T13:25:32.807Z,85.80
2018-12-14T13:28:00.946Z,84.90
2018-12-14T13:30:29.056Z,84.50
2018-12-14T13:32:58.526Z,84.40
2018-12-14T13:35:26.604Z,84.70
2018-12-14T13:37:54.442Z,84.80
2018-12-14T13:40:22.330Z,85.30
2018-12-14T13:42:50.253Z,85.00
2018-12-14T13:45:19.408Z,85.10
2018-12-14T13:47:47.452Z,85.40
2018-12-14T13:50:15.521Z,85.30
2018-12-14T13:52:44.381Z,85.70
2018-12-14T13:55:13.381Z,86.20
2018-12-14T13:57:41.213Z,86.60
2018-12-14T14:00:13.586Z,86.30
2018-12-14T14:02:41.722Z,86.40
2018-12-14T14:05:12.273Z,86.40
2018-12-14T14:07:40.562Z,86.50
2018-12-14T14:10:08.638Z,86.50
2018-12-14T14:12:36.601Z,86.70
2018-12-14T14:15:06.069Z,86.90
2018-12-14T14:17:34.021Z,86.80
2018-12-14T14:20:01.983Z,87.20
2018-12-14T14:22:29.935Z,87.10
2018-12-14T14:24:58.086Z,87.10
2018-12-14T14:27:26.210Z,87.20
2018-12-14T14:29:54.242Z,86.90
2018-12-14T14:32:22.045Z,86.50
2018-12-14T14:34:50.057Z,86.90
2018-12-14T14:37:17.929Z,86.50
2018-12-14T14:39:45.812Z,86.70
2018-12-14T14:42:13.828Z,87.00
2018-12-14T14:44:41.890Z,87.30
2018-12-14T14:47:11.255Z,87.20
2018-12-14T14:49:42.024Z,87.20
2018-12-14T14:52:12.426Z,88.60
2018-12-14T14:54:40.762Z,88.00
2018-12-14T14:57:12.292Z,87.90
2018-12-14T14:59:40.991Z,88.00
2018-12-14T15:02:09.555Z,88.30
2018-12-14T15:04:39.237Z,88.20
2018-12-14T15:07:07.315Z,88.10
2018-12-14T15:09:38.841Z,88.30
2018-12-14T15:12:06.736Z,88.60
2018-12-14T15:14:34.712Z,88.30
2018-12-14T15:17:02.874Z,88.50
2018-12-14T15:19:30.941Z,88.70
2018-12-14T15:22:04.404Z,88.90
2018-12-14T15:24:28.680Z,89.30
2018-12-14T15:26:57.088Z,89.30
2018-12-14T15:29:25.017Z,89.20
2018-12-14T15:31:53.232Z,89.90
2018-12-14T15:34:23.576Z,89.70
2018-12-14T15:36:56.336Z,89.70
2018-12-14T15:39:25.814Z,90.10
2018-12-14T15:41:53.945Z,89.70
2018-12-14T15:44:22.249Z,89.60
2018-12-14T15:46:50.201Z,89.80
2018-12-14T15:49:18.674Z,90.00
2018-12-14T15:51:47.861Z,90.30
2018-12-14T15:59:31.822Z,89.80
2018-12-14T16:01:59.920Z,89.50
2018-12-14T16:04:27.940Z,89.30
2018-12-14T16:07:03.099Z,89.50
2018-12-14T16:09:31.224Z,89.40
2018-12-14T16:11:59.256Z,89.40
2018-12-14T16:14:34.464Z,89.80
2018-12-14T16:17:12.912Z,90.00
2018-12-14T16:19:41.901Z,90.00
2018-12-14T16:22:12.639Z,90.10
2018-12-14T16:24:42.684Z,90.10
2018-12-14T16:27:10.768Z,90.20
2018-12-14T16:29:39.304Z,90.10
2018-12-14T16:32:07.760Z,90.60
2018-12-14T16:34:38.545Z,90.50
2018-12-14T16:37:06.640Z,90.50
2018-12-14T16:39:35.105Z,90.50
2018-12-14T16:42:03.371Z,90.50
2018-12-14T16:44:31.289Z,90.50
2018-12-14T16:47:00.796Z,90.60
2018-12-14T16:49:28.732Z,90.70
2018-12-14T16:51:56.928Z,90.90
2018-12-14T16:54:25.383Z,90.60
2018-12-14T16:57:01.696Z,90.70
2018-12-14T16:59:31.414Z,91.10
2018-12-14T17:02:00.857Z,91.00
2018-12-14T17:04:30.300Z,91.40
2018-12-14T17:06:59.541Z,91.00
2018-12-14T17:09:29.148Z,91.10
2018-12-14T17:11:58.402Z,91.70
2018-12-14T17:14:27.932Z,91.30
2018-12-14T17:16:59.203Z,91.20
2018-12-14T17:19:28.368Z,91.50
2018-12-14T17:21:57.715Z,91.20
2018-12-14T17:24:26.325Z,91.10
2018-12-14T17:26:54.191Z,91.20
2018-12-14T17:29:22.084Z,91.90
2018-12-14T17:31:50.012Z,91.50
2018-12-14T17:34:18.845Z,91.40
2018-12-14T17:36:46.915Z,91.60
2018-12-14T17:39:23.733Z,91.50
2018-12-14T17:41:52.283Z,91.70
2018-12-14T17:44:20.230Z,91.70
2018-12-14T17:46:49.385Z,91.60
2018-12-14T17:49:17.676Z,91.70
2018-12-14T17:51:45.868Z,91.70
2018-12-14T17:54:13.775Z,91.70
2018-12-14T17:56:41.624Z,91.90
2018-12-14T17:59:10.662Z,92.10
2018-12-14T18:01:38.883Z,92.00
2018-12-14T18:04:09.636Z,91.90
2018-12-14T18:06:37.581Z,91.80
2018-12-14T18:09:08.454Z,91.70
2018-12-14T18:11:38.301Z,91.70
2018-12-14T18:14:06.314Z,91.70
2018-12-14T18:16:34.621Z,91.90
2018-12-14T18:19:02.864Z,91.90
2018-12-14T18:21:30.837Z,91.80
2018-12-14T18:23:58.836Z,91.70
2018-12-14T18:26:27.044Z,91.60
2018-12-14T18:28:54.949Z,91.60
2018-12-14T18:31:22.842Z,91.80
2018-12-14T18:33:51.529Z,91.80
2018-12-14T18:36:19.564Z,91.90
2018-12-14T18:38:47.645Z,92.10
2018-12-14T18:41:15.632Z,92.20
2018-12-14T18:43:43.485Z,91.90
2018-12-14T18:46:11.320Z,92.00
2018-12-14T18:48:39.403Z,92.10
2018-12-14T18:51:07.240Z,92.10
2018-12-14T18:53:35.277Z,92.10
2018-12-14T18:56:03.673Z,92.20
2018-12-14T18:58:31.806Z,92.20
2018-12-14T19:01:00.308Z,92.40
2018-12-14T19:03:29.781Z,92.50
2018-12-14T19:05:57.601Z,92.40
2018-12-14T19:08:25.838Z,92.30
2018-12-14T19:10:53.832Z,92.50
2018-12-14T19:13:21.753Z,92.50
2018-12-14T19:15:50.535Z,92.40
2018-12-14T19:18:18.413Z,92.30
2018-12-14T19:20:46.345Z,92.30
2018-12-14T19:23:19.552Z,92.40
2018-12-14T19:25:44.156Z,92.40
2018-12-14T19:28:11.896Z,92.30
2018-12-14T19:30:39.961Z,92.30
2018-12-14T19:33:22.838Z,92.30
2018-12-14T19:35:50.721Z,92.20
2018-12-14T19:38:19.271Z,92.40
2018-12-14T19:40:47.432Z,93.40
2018-12-14T19:43:15.771Z,92.80
2018-12-14T19:45:49.577Z,92.70
2018-12-14T19:48:17.485Z,92.60
2018-12-14T19:50:45.359Z,93.00
2018-12-14T19:53:13.424Z,92.70
2018-12-14T19:55:41.311Z,93.50
2018-12-14T19:58:10.537Z,93.00
2018-12-14T20:00:40.604Z,93.10
2018-12-14T20:03:08.561Z,93.10
2018-12-14T20:05:37.454Z,92.70
2018-12-14T20:08:05.646Z,92.50
2018-12-14T20:10:33.877Z,92.60
2018-12-14T20:13:01.940Z,92.40
2018-12-14T20:15:31.820Z,92.40
2018-12-14T20:18:02.101Z,92.60
2018-12-14T20:20:30.086Z,92.40
2018-12-14T20:22:58.586Z,92.70
2018-12-14T20:25:26.425Z,92.20
2018-12-14T20:27:54.565Z,92.10
2018-12-14T20:30:22.497Z,92.10
2018-12-14T20:32:50.511Z,92.10
2018-12-14T20:35:19.334Z,92.60
2018-12-14T20:37:49.142Z,92.60
2018-12-14T20:40:17.113Z,92.50
2018-12-14T20:42:45.036Z,93.80
2018-12-14T20:45:13.416Z,92.60
2018-12-14T20:47:42.413Z,92.90
2018-12-14T20:50:10.522Z,92.90
2018-12-14T20:52:38.819Z,92.80
2018-12-14T20:55:09.434Z,92.80
2018-12-14T20:57:37.670Z,92.90
2018-12-14T21:00:09.501Z,92.70
2018-12-14T21:02:39.150Z,92.50
2018-12-14T21:05:07.576Z,92.20
2018-12-14T21:07:35.752Z,92.70
2018-12-14T21:10:07.435Z,93.40
2018-12-14T21:12:37.726Z,93.40
2018-12-14T21:15:07.464Z,93.10
2018-12-14T21:20:13.844Z,92.90
2018-12-14T21:22:43.493Z,92.70
2018-12-14T21:25:11.528Z,93.80
2018-12-14T21:27:43.821Z,93.00
2018-12-14T21:30:12.242Z,92.60
2018-12-14T21:32:40.228Z,92.60
2018-12-14T21:35:08.481Z,95.10
2018-12-14T21:37:36.525Z,93.90
2018-12-14T21:40:05.836Z,93.40
2018-12-14T21:42:34.383Z,94.30
2018-12-14T21:45:03.215Z,93.60
2018-12-14T21:47:31.231Z,94.00
2018-12-14T21:49:59.249Z,95.30
2018-12-14T21:52:27.408Z,94.20
2018-12-14T21:54:55.343Z,93.80
2018-12-14T21:57:23.451Z,94.00
2018-12-14T21:59:51.412Z,94.20
2018-12-14T22:02:19.999Z,94.50
2018-12-14T22:04:48.330Z,93.70
2018-12-14T22:07:16.780Z,93.20
2018-12-14T22:09:44.808Z,94.20
2018-12-14T22:12:14.676Z,93.10
2018-12-14T22:14:42.533Z,94.10
2018-12-14T22:17:10.736Z,93.30
2018-12-14T22:19:38.591Z,93.10
2018-12-14T22:22:08.012Z,93.20
2018-12-14T22:27:17.510Z,94.20
2018-12-14T22:29:45.764Z,94.60
2018-12-14T22:32:13.816Z,93.80
2018-12-14T22:34:41.821Z,93.30
2018-12-14T22:37:10.172Z,93.00
2018-12-14T22:39:38.417Z,93.00
2018-12-14T22:42:06.560Z,93.10
2018-12-14T22:44:34.825Z,92.80
2018-12-14T22:47:02.884Z,92.80
2018-12-14T22:49:30.861Z,92.80
2018-12-14T22:51:58.856Z,93.10
2018-12-14T22:54:26.797Z,92.90
2018-12-14T22:56:54.717Z,92.90
2018-12-14T22:59:25.082Z,93.50
2018-12-14T23:01:52.956Z,93.10
2018-12-14T23:04:20.937Z,93.00
2018-12-14T23:06:49.013Z,92.90
2018-12-14T23:09:17.008Z,92.80
2018-12-14T23:11:45.238Z,92.40
2018-12-14T23:14:13.217Z,92.50
2018-12-14T23:16:41.077Z,92.50
2018-12-14T23:19:08.983Z,92.50
2018-12-14T23:21:37.414Z,92.40
2018-12-14T23:24:09.241Z,92.60
2018-12-14T23:26:38.400Z,92.80
2018-12-14T23:29:06.261Z,92.60
2018-12-14T23:31:34.134Z,92.50
2018-12-14T23:34:02.017Z,92.50
2018-12-14T23:36:29.877Z,92.40
2018-12-14T23:38:57.954Z,92.50
2018-12-14T23:41:26.080Z,93.80
2018-12-14T23:43:53.927Z,92.70
2018-12-14T23:46:21.810Z,92.70
2018-12-14T23:48:49.674Z,93.00
2018-12-14T23:51:17.515Z,93.30
2018-12-14T23:53:45.439Z,92.70
2018-12-14T23:56:13.377Z,92.60
2018-12-14T23:58:41.338Z,92.60
